Time;durP1;ratioP1;P1;durP2;ratioP2;P2;SDS_P1;SDS_P2;PMS_P1;PMS_P2;Temp;Humidity;BMP_temperature;BMP_pressure;BME280_temperature;BME280_humidity;BME280_pressure;Samples;Min_cycle;Max_cycle;Signal;HPM_P1;HPM_P2
2023/03/29 00:02:08;;;;;;;5.63;3.05;;;;;;;;;;4970367;28;20229;-66
2023/03/29 00:04:33;;;;;;;5.30;2.83;;;;;;;;;;4971549;28;20237;-67
2023/03/29 00:07:02;;;;;;;6.43;3.30;;;;;;;;;;4971191;28;20553;-67
2023/03/29 00:09:29;;;;;;;8.05;3.47;;;;;;;;;;4970590;28;20213;-66
2023/03/29 00:11:54;;;;;;;5.30;2.92;;;;;;;;;;4954203;28;20288;-67
2023/03/29 00:14:19;;;;;;;5.97;3.13;;;;;;;;;;4971056;28;20300;-66
2023/03/29 00:16:45;;;;;;;6.70;3.50;;;;;;;;;;4970708;28;20253;-67
2023/03/29 00:19:10;;;;;;;5.70;3.13;;;;;;;;;;4961837;28;20206;-66
2023/03/29 00:21:36;;;;;;;9.48;3.65;;;;;;;;;;4952067;28;20276;-66
2023/03/29 00:24:01;;;;;;;6.35;3.60;;;;;;;;;;4950870;28;20217;-66
2023/03/29 00:26:26;;;;;;;7.22;3.38;;;;;;;;;;4951934;28;20213;-67
2023/03/29 00:28:51;;;;;;;7.55;3.40;;;;;;;;;;4951509;29;20221;-67
2023/03/29 00:31:17;;;;;;;6.57;3.70;;;;;;;;;;4970837;28;20288;-66
2023/03/29 00:33:42;;;;;;;8.95;3.72;;;;;;;;;;4975201;28;20717;-67
2023/03/29 00:36:09;;;;;;;8.27;3.50;;;;;;;;;;4973689;28;20260;-66
2023/03/29 00:38:34;;;;;;;7.60;3.67;;;;;;;;;;4972386;28;20682;-67
2023/03/29 00:40:59;;;;;;;8.35;3.70;;;;;;;;;;4955463;29;20237;-67
2023/03/29 00:43:25;;;;;;;7.85;3.72;;;;;;;;;;4954544;29;20206;-67
2023/03/29 00:45:50;;;;;;;6.07;3.60;;;;;;;;;;4955745;29;20681;-67
2023/03/29 00:48:16;;;;;;;6.57;3.13;;;;;;;;;;4955101;29;20214;-66
2023/03/29 00:50:50;;;;;;;6.55;3.50;;;;;;;;;;4937489;29;20225;-67
2023/03/29 00:53:18;;;;;;;7.63;3.60;;;;;;;;;;4937718;29;20218;-66
2023/03/29 00:55:46;;;;;;;6.40;2.95;;;;;;;;;;4938254;29;20585;-67
2023/03/29 00:58:12;;;;;;;6.97;3.70;;;;;;;;;;4937063;29;20277;-66
2023/03/29 01:00:40;;;;;;;9.50;3.45;;;;;;;;;;4938209;29;20686;-67
2023/03/29 01:03:07;;;;;;;7.40;3.20;;;;;;;;;;4954658;29;20214;-65
2023/03/29 01:05:36;;;;;;;7.00;3.53;;;;;;;;;;4937362;29;20230;-67
2023/03/29 01:08:02;;;;;;;7.18;3.72;;;;;;;;;;4937318;29;20210;-66
2023/03/29 01:10:34;;;;;;;8.03;3.60;;;;;;;;;;4955122;29;20269;-67
2023/03/29 01:13:02;;;;;;;5.15;3.33;;;;;;;;;;4954298;29;20238;-67
2023/03/29 01:15:28;;;;;;;8.23;3.20;;;;;;;;;;4937821;29;20221;-67
2023/03/29 01:17:54;;;;;;;6.38;3.25;;;;;;;;;;4954708;29;20218;-67
2023/03/29 01:20:21;;;;;;;7.22;3.30;;;;;;;;;;4959638;28;20297;-67
2023/03/29 01:22:56;;;;;;;7.85;3.63;;;;;;;;;;4954876;29;20226;-67
2023/03/29 01:25:25;;;;;;;5.97;2.83;;;;;;;;;;4953586;29;20737;-66
2023/03/29 01:27:54;;;;;;;7.77;3.57;;;;;;;;;;4952781;28;20677;-66
2023/03/29 01:30:22;;;;;;;9.02;3.80;;;;;;;;;;4953761;28;20214;-66
2023/03/29 01:32:49;;;;;;;9.32;3.70;;;;;;;;;;4929446;28;20266;-66
2023/03/29 01:35:18;;;;;;;7.83;3.20;;;;;;;;;;4944515;28;20619;-66
2023/03/29 01:37:46;;;;;;;6.00;3.50;;;;;;;;;;4954255;28;20229;-66
2023/03/29 01:40:11;;;;;;;6.78;3.33;;;;;;;;;;4923374;28;20658;-66
2023/03/29 01:42:45;;;;;;;6.23;3.00;;;;;;;;;;4936550;28;20749;-66
2023/03/29 01:45:16;;;;;;;6.20;2.90;;;;;;;;;;4943442;28;20209;-65
2023/03/29 01:47:53;;;;;;;5.05;2.70;;;;;;;;;;4946361;28;20715;-66
2023/03/29 01:50:22;;;;;;;6.35;2.50;;;;;;;;;;4930434;28;20936;-66
2023/03/29 01:52:49;;;;;;;5.90;3.00;;;;;;;;;;4946620;28;20224;-66
2023/03/29 01:55:16;;;;;;;7.78;3.30;;;;;;;;;;4945129;28;20333;-65
2023/03/29 01:57:42;;;;;;;4.68;2.60;;;;;;;;;;4946448;28;20225;-66
2023/03/29 02:00:09;;;;;;;6.03;2.97;;;;;;;;;;4939448;28;20325;-66
2023/03/29 02:02:34;;;;;;;6.27;2.73;;;;;;;;;;4935199;28;20226;-66
2023/03/29 02:04:59;;;;;;;6.33;2.90;;;;;;;;;;4937675;28;20223;-66
2023/03/29 02:07:25;;;;;;;6.20;2.97;;;;;;;;;;4939230;28;20249;-66
2023/03/29 02:09:51;;;;;;;6.72;3.00;;;;;;;;;;4927523;28;20226;-66
2023/03/29 02:12:17;;;;;;;7.82;3.33;;;;;;;;;;4926553;28;20214;-66
2023/03/29 02:14:42;;;;;;;6.97;2.88;;;;;;;;;;4944107;28;20215;-66
2023/03/29 02:17:14;;;;;;;6.22;2.58;;;;;;;;;;4946026;28;20221;-66
2023/03/29 02:19:39;;;;;;;5.43;2.55;;;;;;;;;;4944580;28;20887;-66
2023/03/29 02:22:06;;;;;;;5.93;2.88;;;;;;;;;;4951625;28;20225;-66
2023/03/29 02:24:33;;;;;;;8.63;3.10;;;;;;;;;;4925001;28;20326;-66
2023/03/29 02:26:58;;;;;;;7.75;3.15;;;;;;;;;;4924903;28;20304;-66
2023/03/29 02:29:25;;;;;;;5.88;3.00;;;;;;;;;;4930944;28;20229;-66
2023/03/29 02:31:56;;;;;;;6.22;2.95;;;;;;;;;;4928433;28;20230;-66
2023/03/29 02:34:28;;;;;;;7.10;2.72;;;;;;;;;;4945380;28;20245;-66
2023/03/29 02:36:57;;;;;;;6.22;2.63;;;;;;;;;;4961014;28;20228;-66
2023/03/29 02:39:24;;;;;;;8.15;3.00;;;;;;;;;;4936740;28;20215;-66
2023/03/29 02:41:49;;;;;;;7.87;2.90;;;;;;;;;;4943671;28;20325;-67
2023/03/29 02:44:16;;;;;;;6.07;2.73;;;;;;;;;;4925039;28;20313;-66
2023/03/29 02:46:42;;;;;;;5.38;2.90;;;;;;;;;;4937269;28;20329;-66
2023/03/29 02:49:09;;;;;;;7.47;3.20;;;;;;;;;;4919082;28;20210;-66
2023/03/29 02:51:34;;;;;;;6.60;3.00;;;;;;;;;;4937548;28;20214;-66
2023/03/29 02:54:01;;;;;;;8.68;3.08;;;;;;;;;;4944422;28;20241;-66
2023/03/29 02:56:27;;;;;;;6.00;3.03;;;;;;;;;;4944372;28;20575;-66
2023/03/29 02:58:52;;;;;;;9.50;3.27;;;;;;;;;;4962618;28;20221;-65
2023/03/29 03:01:19;;;;;;;6.80;3.00;;;;;;;;;;4961797;28;20225;-65
2023/03/29 03:03:46;;;;;;;6.90;3.00;;;;;;;;;;4942786;28;21202;-65
2023/03/29 03:06:12;;;;;;;5.65;3.03;;;;;;;;;;4943239;28;20214;-65
2023/03/29 03:08:37;;;;;;;8.07;3.08;;;;;;;;;;4937979;28;20214;-65
2023/03/29 03:11:03;;;;;;;8.10;3.10;;;;;;;;;;4935186;28;20229;-65
2023/03/29 03:13:28;;;;;;;6.10;3.00;;;;;;;;;;4936286;28;20289;-65
2023/03/29 03:15:53;;;;;;;6.57;3.47;;;;;;;;;;4941579;28;20210;-65
2023/03/29 03:18:19;;;;;;;5.73;3.30;;;;;;;;;;4942669;28;20210;-65
2023/03/29 03:20:53;;;;;;;7.70;3.67;;;;;;;;;;4943121;28;20219;-65
2023/03/29 03:23:18;;;;;;;5.90;3.38;;;;;;;;;;4961693;28;20694;-65
2023/03/29 03:25:43;;;;;;;7.85;3.90;;;;;;;;;;4961552;28;20237;-65
2023/03/29 03:28:09;;;;;;;6.85;3.58;;;;;;;;;;4944212;28;20218;-65
2023/03/29 03:30:34;;;;;;;8.67;4.20;;;;;;;;;;4947627;28;20216;-65
2023/03/29 03:32:59;;;;;;;8.50;3.78;;;;;;;;;;4954228;28;20226;-65
2023/03/29 03:35:25;;;;;;;6.90;3.72;;;;;;;;;;4941567;28;20216;-66
2023/03/29 03:37:50;;;;;;;9.20;3.53;;;;;;;;;;4957091;28;20708;-66
2023/03/29 03:40:16;;;;;;;8.38;4.07;;;;;;;;;;4941988;28;20331;-65
2023/03/29 03:42:41;;;;;;;8.43;4.05;;;;;;;;;;4943005;28;20592;-65
2023/03/29 03:45:07;;;;;;;7.43;4.22;;;;;;;;;;4924977;28;20411;-65
2023/03/29 03:47:33;;;;;;;7.78;4.18;;;;;;;;;;4961076;28;20221;-66
2023/03/29 03:49:58;;;;;;;9.33;4.37;;;;;;;;;;4961923;28;20225;-66
2023/03/29 03:52:24;;;;;;;11.50;4.35;;;;;;;;;;4942983;28;20225;-66
2023/03/29 03:54:49;;;;;;;10.87;4.77;;;;;;;;;;4954234;28;20264;-65
2023/03/29 03:57:15;;;;;;;11.10;4.47;;;;;;;;;;4953522;28;20222;-65
2023/03/29 03:59:40;;;;;;;8.30;4.55;;;;;;;;;;4954690;28;20300;-65
2023/03/29 04:02:06;;;;;;;8.77;4.50;;;;;;;;;;4941715;28;20349;-65
2023/03/29 04:04:31;;;;;;;8.32;4.03;;;;;;;;;;4945101;28;20297;-66
2023/03/29 04:07:01;;;;;;;9.83;4.53;;;;;;;;;;4966874;28;20615;-66
2023/03/29 04:09:28;;;;;;;8.53;4.40;;;;;;;;;;4967558;28;20224;-66
2023/03/29 04:11:54;;;;;;;7.47;4.40;;;;;;;;;;4967676;28;20707;-66
2023/03/29 04:14:20;;;;;;;7.10;4.05;;;;;;;;;;4966914;28;20587;-66
2023/03/29 04:16:46;;;;;;;11.32;4.28;;;;;;;;;;4962580;28;20669;-66
2023/03/29 04:19:11;;;;;;;7.93;4.03;;;;;;;;;;4951941;28;20698;-66
2023/03/29 04:21:37;;;;;;;6.85;3.92;;;;;;;;;;4940932;28;20255;-66
2023/03/29 04:24:02;;;;;;;8.23;4.05;;;;;;;;;;4946827;28;20225;-66
2023/03/29 04:26:27;;;;;;;9.27;4.18;;;;;;;;;;4948820;28;20210;-66
2023/03/29 04:28:52;;;;;;;10.82;4.18;;;;;;;;;;4948201;28;20276;-66
2023/03/29 04:31:18;;;;;;;7.78;3.80;;;;;;;;;;4948009;28;20245;-66
2023/03/29 04:33:45;;;;;;;9.83;4.10;;;;;;;;;;4948897;28;20210;-66
2023/03/29 04:36:12;;;;;;;8.07;4.00;;;;;;;;;;4947969;28;21004;-66
2023/03/29 04:38:40;;;;;;;9.30;4.10;;;;;;;;;;4946017;28;21237;-66
2023/03/29 04:41:06;;;;;;;7.47;3.83;;;;;;;;;;4941123;28;20740;-65
2023/03/29 04:43:31;;;;;;;7.10;3.87;;;;;;;;;;4940861;28;20210;-66
2023/03/29 04:45:57;;;;;;;6.93;4.38;;;;;;;;;;4944368;28;20229;-66
2023/03/29 04:48:23;;;;;;;7.47;3.88;;;;;;;;;;4967163;28;21026;-66
2023/03/29 04:50:48;;;;;;;7.63;4.20;;;;;;;;;;4967125;28;20301;-66
2023/03/29 04:53:13;;;;;;;7.32;3.63;;;;;;;;;;4967128;28;20275;-66
2023/03/29 04:55:39;;;;;;;9.60;4.45;;;;;;;;;;4967730;28;20210;-65
2023/03/29 04:58:04;;;;;;;8.13;3.83;;;;;;;;;;4966158;28;20210;-66
2023/03/29 05:00:30;;;;;;;8.40;4.28;;;;;;;;;;4966220;28;20233;-66
2023/03/29 05:02:56;;;;;;;8.02;4.05;;;;;;;;;;4960630;28;20276;-67
2023/03/29 05:05:22;;;;;;;9.60;4.00;;;;;;;;;;4959504;28;20264;-66
2023/03/29 05:07:47;;;;;;;6.87;4.07;;;;;;;;;;4961053;28;20209;-67
2023/03/29 05:10:13;;;;;;;7.13;4.28;;;;;;;;;;4966663;28;20225;-66
2023/03/29 05:12:39;;;;;;;7.55;4.15;;;;;;;;;;4967755;28;20220;-67
2023/03/29 05:15:04;;;;;;;10.73;5.32;;;;;;;;;;4966613;28;20210;-66
2023/03/29 05:17:30;;;;;;;8.20;4.70;;;;;;;;;;4945819;28;20218;-66
2023/03/29 05:19:56;;;;;;;7.70;3.87;;;;;;;;;;4949672;28;20214;-66
2023/03/29 05:22:22;;;;;;;7.82;4.63;;;;;;;;;;4945073;28;20596;-67
2023/03/29 05:24:47;;;;;;;7.90;4.07;;;;;;;;;;4939216;28;20206;-67
2023/03/29 05:27:13;;;;;;;8.23;4.63;;;;;;;;;;4938177;28;20258;-66
2023/03/29 05:29:38;;;;;;;10.32;4.20;;;;;;;;;;4938056;28;20198;-67
2023/03/29 05:32:03;;;;;;;9.00;4.45;;;;;;;;;;4942243;28;20730;-66
2023/03/29 05:34:30;;;;;;;7.28;3.63;;;;;;;;;;4945429;28;20215;-67
2023/03/29 05:36:57;;;;;;;8.38;3.67;;;;;;;;;;4942944;28;20217;-67
2023/03/29 05:39:23;;;;;;;8.63;3.92;;;;;;;;;;4972678;28;20689;-67
2023/03/29 05:41:48;;;;;;;7.35;3.40;;;;;;;;;;4973991;28;20217;-67
2023/03/29 05:44:14;;;;;;;6.75;3.55;;;;;;;;;;4973347;28;20245;-66
2023/03/29 05:46:39;;;;;;;6.78;4.10;;;;;;;;;;4972871;28;20206;-67
2023/03/29 05:49:05;;;;;;;7.30;3.78;;;;;;;;;;4973554;28;20276;-67
2023/03/29 05:51:32;;;;;;;8.95;4.03;;;;;;;;;;4973538;28;20245;-67
2023/03/29 05:53:57;;;;;;;8.77;4.03;;;;;;;;;;4973040;28;20914;-67
2023/03/29 05:56:23;;;;;;;8.02;4.03;;;;;;;;;;4973159;28;20206;-66
2023/03/29 05:58:49;;;;;;;9.88;4.38;;;;;;;;;;4973694;28;20210;-66
2023/03/29 06:01:16;;;;;;;7.15;4.03;;;;;;;;;;4971874;28;20909;-67
2023/03/29 06:03:42;;;;;;;7.18;4.07;;;;;;;;;;4973623;28;20713;-66
2023/03/29 06:06:08;;;;;;;8.13;4.43;;;;;;;;;;4972956;28;20206;-66
2023/03/29 06:08:34;;;;;;;8.98;4.15;;;;;;;;;;4972754;28;20725;-66
2023/03/29 06:11:00;;;;;;;7.38;4.35;;;;;;;;;;4973179;28;20297;-67
2023/03/29 06:13:26;;;;;;;9.55;4.65;;;;;;;;;;4972418;28;20300;-66
2023/03/29 06:15:52;;;;;;;9.93;4.93;;;;;;;;;;4973091;28;20304;-67
2023/03/29 06:18:17;;;;;;;8.38;4.13;;;;;;;;;;4970870;28;20214;-67
2023/03/29 06:20:43;;;;;;;7.28;4.30;;;;;;;;;;4952744;28;20206;-66
2023/03/29 06:23:08;;;;;;;7.53;4.35;;;;;;;;;;4936210;28;20781;-66
2023/03/29 06:25:34;;;;;;;5.57;2.10;;;;;;;;;;4953715;28;20218;-67
2023/03/29 06:27:59;;;;;;;9.68;4.90;;;;;;;;;;4952964;28;20229;-68
2023/03/29 06:30:25;;;;;;;8.50;5.10;;;;;;;;;;4960933;28;20402;-67
2023/03/29 06:32:50;;;;;;;8.40;4.72;;;;;;;;;;4972649;28;20309;-67
2023/03/29 06:35:15;;;;;;;6.85;4.03;;;;;;;;;;4961811;28;20717;-65
2023/03/29 06:37:48;;;;;;;8.68;4.32;;;;;;;;;;4962488;28;20230;-67
2023/03/29 06:40:13;;;;;;;9.25;4.40;;;;;;;;;;4960826;28;20800;-67
2023/03/29 06:42:39;;;;;;;8.02;4.72;;;;;;;;;;4961643;28;20238;-67
2023/03/29 06:45:05;;;;;;;6.38;3.92;;;;;;;;;;4962620;28;20697;-68
2023/03/29 06:47:30;;;;;;;6.72;4.43;;;;;;;;;;4963211;28;20298;-68
2023/03/29 06:49:56;;;;;;;7.40;4.70;;;;;;;;;;4961639;28;20213;-67
2023/03/29 06:52:21;;;;;;;8.80;4.00;;;;;;;;;;4945630;28;20839;-67
2023/03/29 06:54:46;;;;;;;5.85;3.80;;;;;;;;;;4961442;28;20199;-68
2023/03/29 06:57:12;;;;;;;5.55;3.50;;;;;;;;;;4961341;28;20206;-68
2023/03/29 06:59:37;;;;;;;7.65;3.92;;;;;;;;;;4961195;28;20654;-67
2023/03/29 07:02:03;;;;;;;6.53;3.30;;;;;;;;;;4961274;28;20222;-65
2023/03/29 07:04:28;;;;;;;6.75;3.40;;;;;;;;;;4971591;28;20217;-67
2023/03/29 07:07:00;;;;;;;6.38;3.50;;;;;;;;;;4972206;28;20296;-66
2023/03/29 07:09:31;;;;;;;9.70;3.78;;;;;;;;;;4972078;28;20216;-68
2023/03/29 07:11:57;;;;;;;7.60;4.00;;;;;;;;;;4971380;28;20260;-67
2023/03/29 07:14:24;;;;;;;8.93;4.00;;;;;;;;;;4971924;28;20213;-66
2023/03/29 07:16:51;;;;;;;10.07;4.03;;;;;;;;;;4971335;28;20210;-67
2023/03/29 07:19:16;;;;;;;7.03;3.83;;;;;;;;;;4965648;28;20633;-66
2023/03/29 07:21:42;;;;;;;8.05;4.10;;;;;;;;;;4959099;28;20253;-67
2023/03/29 07:24:09;;;;;;;11.55;4.15;;;;;;;;;;4960014;28;20214;-66
2023/03/29 07:26:34;;;;;;;9.25;4.50;;;;;;;;;;4961083;28;20229;-66
2023/03/29 07:28:59;;;;;;;7.90;4.32;;;;;;;;;;4961803;28;20217;-67
2023/03/29 07:31:25;;;;;;;6.88;4.53;;;;;;;;;;4959585;28;20238;-66
2023/03/29 07:33:52;;;;;;;9.52;4.28;;;;;;;;;;4962622;28;20210;-67
2023/03/29 07:36:17;;;;;;;8.05;4.10;;;;;;;;;;4960899;28;20214;-67
2023/03/29 07:38:42;;;;;;;12.07;4.60;;;;;;;;;;4943073;28;20265;-67
2023/03/29 07:41:07;;;;;;;9.45;4.25;;;;;;;;;;4970959;28;20701;-67
2023/03/29 07:43:33;;;;;;;9.00;4.50;;;;;;;;;;4971919;28;20292;-67
2023/03/29 07:46:04;;;;;;;7.47;4.03;;;;;;;;;;4971046;28;20285;-68
2023/03/29 07:48:31;;;;;;;9.48;4.28;;;;;;;;;;4953277;28;20296;-68
2023/03/29 07:50:56;;;;;;;9.57;4.40;;;;;;;;;;4971557;28;20244;-66
2023/03/29 07:53:22;;;;;;;8.10;3.90;;;;;;;;;;4970433;28;20210;-67
2023/03/29 07:55:48;;;;;;;8.77;3.70;;;;;;;;;;4971396;28;20209;-67
2023/03/29 07:58:14;;;;;;;12.55;4.40;;;;;;;;;;4953978;28;20229;-67
2023/03/29 08:00:40;;;;;;;9.02;4.20;;;;;;;;;;4970820;28;20206;-68
2023/03/29 08:03:06;;;;;;;8.65;4.30;;;;;;;;;;4970918;28;20210;-67
2023/03/29 08:05:31;;;;;;;8.88;4.32;;;;;;;;;;4971515;28;20214;-67
2023/03/29 08:07:57;;;;;;;9.27;4.28;;;;;;;;;;4970730;28;20210;-68
2023/03/29 08:10:22;;;;;;;9.85;4.43;;;;;;;;;;4970783;28;20584;-68
2023/03/29 08:12:47;;;;;;;9.23;4.30;;;;;;;;;;4971347;28;20637;-71
2023/03/29 08:15:13;;;;;;;7.75;4.18;;;;;;;;;;4970348;28;20697;-70
2023/03/29 08:17:38;;;;;;;8.00;4.80;;;;;;;;;;4971348;28;20213;-69
2023/03/29 08:20:04;;;;;;;8.27;4.40;;;;;;;;;;4970201;28;20214;-68
2023/03/29 08:22:31;;;;;;;8.05;4.40;;;;;;;;;;4971056;28;20694;-69
2023/03/29 08:24:56;;;;;;;10.07;4.60;;;;;;;;;;4971040;28;20209;-71
2023/03/29 08:27:21;;;;;;;10.82;4.38;;;;;;;;;;4958635;28;20214;-72
2023/03/29 08:29:47;;;;;;;10.00;4.70;;;;;;;;;;4955925;28;20209;-71
2023/03/29 08:32:13;;;;;;;10.50;4.93;;;;;;;;;;4963156;28;20230;-70
2023/03/29 08:34:38;;;;;;;11.73;4.60;;;;;;;;;;4951264;29;20260;-71
2023/03/29 08:37:03;;;;;;;10.52;5.30;;;;;;;;;;4958884;28;20217;-70
2023/03/29 08:39:29;;;;;;;10.05;4.72;;;;;;;;;;4961213;28;20264;-71
2023/03/29 08:42:01;;;;;;;10.15;5.15;;;;;;;;;;4950885;29;20221;-71
2023/03/29 08:44:38;;;;;;;8.55;5.38;;;;;;;;;;4951622;29;20297;-71
2023/03/29 08:47:10;;;;;;;11.23;5.00;;;;;;;;;;4951213;29;20245;-70
2023/03/29 08:49:36;;;;;;;9.20;5.00;;;;;;;;;;4933846;29;20222;-71
2023/03/29 08:52:02;;;;;;;8.18;5.57;;;;;;;;;;4961130;28;20214;-70
2023/03/29 08:54:28;;;;;;;10.63;5.63;;;;;;;;;;4957221;28;20217;-71
2023/03/29 08:56:56;;;;;;;10.15;5.45;;;;;;;;;;4956739;28;20222;-71
2023/03/29 08:59:23;;;;;;;11.48;5.88;;;;;;;;;;4956867;28;20436;-72
2023/03/29 09:01:49;;;;;;;10.25;6.47;;;;;;;;;;4951864;28;20685;-70
2023/03/29 09:04:15;;;;;;;10.77;5.88;;;;;;;;;;4944304;28;20211;-71
2023/03/29 09:06:41;;;;;;;14.43;6.40;;;;;;;;;;4964592;28;20568;-70
2023/03/29 09:09:11;;;;;;;11.48;6.10;;;;;;;;;;4963814;28;20232;-68
2023/03/29 09:11:40;;;;;;;14.73;6.43;;;;;;;;;;4947965;28;20288;-69
2023/03/29 09:14:07;;;;;;;12.15;6.63;;;;;;;;;;4963850;28;20202;-68
2023/03/29 09:16:37;;;;;;;14.77;7.10;;;;;;;;;;4962502;28;20215;-69
2023/03/29 09:19:08;;;;;;;14.63;6.80;;;;;;;;;;4954360;28;20692;-69
2023/03/29 09:21:40;;;;;;;11.38;6.95;;;;;;;;;;4964712;28;20252;-69
2023/03/29 09:24:14;;;;;;;11.30;7.15;;;;;;;;;;4944944;28;20206;-68
2023/03/29 09:26:43;;;;;;;14.70;7.50;;;;;;;;;;4950044;28;20205;-69
2023/03/29 09:29:15;;;;;;;11.55;6.85;;;;;;;;;;4946796;28;20214;-69
2023/03/29 09:31:41;;;;;;;15.02;7.70;;;;;;;;;;4947093;28;20226;-68
2023/03/29 09:34:08;;;;;;;12.30;7.03;;;;;;;;;;4945627;28;20245;-68
2023/03/29 09:36:37;;;;;;;15.85;7.38;;;;;;;;;;4964721;28;20716;-69
2023/03/29 09:39:03;;;;;;;11.68;7.18;;;;;;;;;;4961094;28;20198;-68
2023/03/29 09:41:31;;;;;;;12.98;6.88;;;;;;;;;;4964148;28;20653;-68
2023/03/29 09:43:57;;;;;;;11.55;6.75;;;;;;;;;;4962521;28;20736;-69
2023/03/29 09:46:24;;;;;;;11.68;7.40;;;;;;;;;;4962717;28;20689;-68
2023/03/29 09:48:49;;;;;;;14.40;7.45;;;;;;;;;;4962923;28;20269;-68
2023/03/29 09:51:15;;;;;;;12.30;7.40;;;;;;;;;;4961701;28;20198;-68
2023/03/29 09:53:40;;;;;;;13.05;7.40;;;;;;;;;;4945886;28;20228;-69
2023/03/29 09:56:07;;;;;;;12.23;7.30;;;;;;;;;;4962019;28;20206;-68
2023/03/29 09:58:33;;;;;;;14.25;7.32;;;;;;;;;;4958803;28;20305;-69
2023/03/29 10:00:59;;;;;;;13.65;7.25;;;;;;;;;;4944383;28;20646;-69
2023/03/29 10:03:26;;;;;;;12.50;7.70;;;;;;;;;;4961250;28;20221;-69
2023/03/29 10:05:53;;;;;;;12.85;8.20;;;;;;;;;;4961649;28;20682;-68
2023/03/29 10:08:26;;;;;;;14.35;8.10;;;;;;;;;;4944693;28;20221;-67
2023/03/29 10:10:51;;;;;;;15.95;8.82;;;;;;;;;;4945122;28;20546;-68
2023/03/29 10:13:20;;;;;;;13.52;9.00;;;;;;;;;;4961670;28;20220;-67
2023/03/29 10:15:56;;;;;;;20.30;13.63;;;;;;;;;;4946158;28;20215;-67
2023/03/29 10:18:21;;;;;;;20.77;12.07;;;;;;;;;;4931709;28;20228;-67
2023/03/29 10:20:46;;;;;;;13.65;9.10;;;;;;;;;;4944508;28;20218;-67
2023/03/29 10:23:16;;;;;;;21.83;13.70;;;;;;;;;;4963001;28;20221;-67
2023/03/29 10:25:41;;;;;;;16.73;9.27;;;;;;;;;;4946567;28;20202;-67
2023/03/29 10:28:10;;;;;;;19.25;11.88;;;;;;;;;;4943493;28;20581;-67
2023/03/29 10:30:36;;;;;;;14.27;9.43;;;;;;;;;;4946374;28;20689;-67
2023/03/29 10:33:02;;;;;;;15.95;9.25;;;;;;;;;;4962134;28;20248;-65
2023/03/29 10:35:32;;;;;;;12.00;8.73;;;;;;;;;;4944416;28;20260;-67
2023/03/29 10:37:58;;;;;;;14.82;9.45;;;;;;;;;;4963452;28;20206;-66
2023/03/29 10:40:25;;;;;;;17.17;9.55;;;;;;;;;;4943930;28;20213;-65
2023/03/29 10:42:52;;;;;;;13.13;9.00;;;;;;;;;;4945312;28;20225;-66
2023/03/29 10:45:24;;;;;;;14.68;9.45;;;;;;;;;;4960980;28;20682;-65
2023/03/29 10:47:49;;;;;;;13.50;9.10;;;;;;;;;;4959986;28;20237;-65
2023/03/29 10:50:15;;;;;;;17.33;8.18;;;;;;;;;;4963031;28;20260;-65
2023/03/29 10:52:40;;;;;;;12.45;8.40;;;;;;;;;;4961269;28;20670;-65
2023/03/29 10:55:08;;;;;;;15.75;8.90;;;;;;;;;;4961128;28;20587;-65
2023/03/29 10:57:41;;;;;;;19.40;8.68;;;;;;;;;;4946476;28;20210;-66
2023/03/29 11:00:07;;;;;;;14.70;8.80;;;;;;;;;;4962036;28;20698;-66
2023/03/29 11:02:38;;;;;;;14.93;8.40;;;;;;;;;;4960483;28;20218;-66
2023/03/29 11:05:07;;;;;;;13.75;8.60;;;;;;;;;;4961487;28;20218;-66
2023/03/29 11:07:39;;;;;;;12.00;8.82;;;;;;;;;;4943810;28;20210;-66
2023/03/29 11:10:05;;;;;;;13.35;8.77;;;;;;;;;;4943631;28;20659;-66
2023/03/29 11:12:33;;;;;;;14.35;9.43;;;;;;;;;;4961549;28;20310;-66
2023/03/29 11:14:59;;;;;;;16.80;10.57;;;;;;;;;;4960402;28;20215;-66
2023/03/29 11:17:28;;;;;;;14.75;9.27;;;;;;;;;;4961035;28;20218;-65
2023/03/29 11:19:55;;;;;;;14.10;9.05;;;;;;;;;;4962964;28;20213;-65
2023/03/29 11:22:27;;;;;;;12.35;9.07;;;;;;;;;;4943323;28;20290;-66
2023/03/29 11:24:53;;;;;;;14.70;8.93;;;;;;;;;;4960087;28;20720;-66
2023/03/29 11:27:22;;;;;;;17.40;9.23;;;;;;;;;;4959002;28;20296;-65
2023/03/29 11:29:47;;;;;;;14.50;8.43;;;;;;;;;;4961978;28;20293;-66
2023/03/29 11:32:13;;;;;;;12.93;8.50;;;;;;;;;;4959751;28;20801;-66
2023/03/29 11:34:41;;;;;;;13.55;9.15;;;;;;;;;;4962770;28;20210;-66
2023/03/29 11:37:18;;;;;;;12.30;8.35;;;;;;;;;;4960270;28;20206;-65
2023/03/29 11:40:01;;;;;;;13.90;8.73;;;;;;;;;;4943180;28;20209;-66
2023/03/29 11:42:28;;;;;;;14.75;9.18;;;;;;;;;;4952203;28;20236;-65
2023/03/29 11:44:53;;;;;;;13.50;8.63;;;;;;;;;;4970918;28;20661;-65
2023/03/29 11:47:20;;;;;;;14.40;8.77;;;;;;;;;;4953510;28;20297;-65
2023/03/29 11:49:50;;;;;;;15.02;8.45;;;;;;;;;;4971754;28;20213;-66
2023/03/29 11:52:17;;;;;;;10.57;7.78;;;;;;;;;;4969953;28;20736;-66
2023/03/29 11:54:56;;;;;;;13.05;8.20;;;;;;;;;;4954419;28;20221;-66
2023/03/29 11:57:22;;;;;;;11.35;7.32;;;;;;;;;;4971030;28;20732;-66
2023/03/29 11:59:55;;;;;;;14.23;8.00;;;;;;;;;;4970783;28;20701;-67
2023/03/29 12:02:26;;;;;;;13.93;7.10;;;;;;;;;;4953801;28;20632;-66
2023/03/29 12:04:51;;;;;;;12.55;6.97;;;;;;;;;;4954486;28;20226;-66
2023/03/29 12:07:25;;;;;;;11.35;6.82;;;;;;;;;;4952645;28;20527;-66
2023/03/29 12:09:52;;;;;;;11.70;6.60;;;;;;;;;;4971276;28;20685;-66
2023/03/29 12:12:19;;;;;;;12.20;7.10;;;;;;;;;;4970362;28;20246;-66
2023/03/29 12:14:47;;;;;;;11.68;7.57;;;;;;;;;;4971360;28;20644;-66
2023/03/29 12:17:13;;;;;;;13.43;7.10;;;;;;;;;;4936389;29;20261;-65
2023/03/29 12:19:53;;;;;;;13.55;7.25;;;;;;;;;;4950415;28;20221;-66
2023/03/29 12:22:19;;;;;;;10.25;6.85;;;;;;;;;;4933994;29;20289;-66
2023/03/29 12:24:45;;;;;;;10.50;6.85;;;;;;;;;;4951801;28;20290;-67
2023/03/29 12:27:15;;;;;;;9.77;6.30;;;;;;;;;;4946958;28;20669;-66
2023/03/29 12:29:47;;;;;;;11.18;7.07;;;;;;;;;;4975262;28;20234;-66
2023/03/29 12:32:13;;;;;;;15.18;7.38;;;;;;;;;;4956924;28;20695;-66
2023/03/29 12:34:51;;;;;;;12.45;6.63;;;;;;;;;;4955061;29;20217;-66
2023/03/29 12:37:27;;;;;;;10.77;6.85;;;;;;;;;;4954037;29;20241;-66
2023/03/29 12:39:52;;;;;;;13.13;7.32;;;;;;;;;;4963890;28;20210;-66
2023/03/29 12:42:18;;;;;;;11.07;7.18;;;;;;;;;;4954489;28;20273;-66
2023/03/29 12:44:50;;;;;;;13.25;7.22;;;;;;;;;;4955862;28;20207;-66
2023/03/29 12:47:19;;;;;;;17.75;12.40;;;;;;;;;;4954808;28;20214;-65
2023/03/29 12:49:44;;;;;;;11.00;7.03;;;;;;;;;;4955537;29;20242;-66
2023/03/29 12:52:20;;;;;;;11.40;8.27;;;;;;;;;;4954825;29;20206;-65
2023/03/29 12:54:51;;;;;;;11.57;7.10;;;;;;;;;;4937587;29;20274;-66
2023/03/29 12:57:17;;;;;;;9.57;6.85;;;;;;;;;;4957296;28;20222;-66
2023/03/29 12:59:44;;;;;;;10.75;7.22;;;;;;;;;;4938303;29;20214;-66
2023/03/29 13:02:12;;;;;;;9.13;6.68;;;;;;;;;;4936782;29;20229;-66
2023/03/29 13:04:41;;;;;;;14.30;6.85;;;;;;;;;;4955329;29;20211;-66
2023/03/29 13:07:10;;;;;;;9.77;7.18;;;;;;;;;;4954573;29;20211;-65
2023/03/29 13:09:48;;;;;;;9.32;6.60;;;;;;;;;;4953392;29;20543;-66
2023/03/29 13:12:14;;;;;;;11.23;6.65;;;;;;;;;;4954508;29;20214;-66
2023/03/29 13:14:41;;;;;;;12.13;6.95;;;;;;;;;;4955317;29;20234;-65
2023/03/29 13:17:08;;;;;;;8.77;6.55;;;;;;;;;;4952655;29;20214;-66
2023/03/29 13:19:35;;;;;;;8.98;7.20;;;;;;;;;;4954021;29;20293;-66
2023/03/29 13:22:09;;;;;;;11.82;7.43;;;;;;;;;;4953409;29;20765;-66
2023/03/29 13:24:39;;;;;;;11.82;6.97;;;;;;;;;;4953755;29;20264;-66
2023/03/29 13:27:09;;;;;;;13.07;7.40;;;;;;;;;;4954285;28;20223;-65
2023/03/29 13:29:37;;;;;;;10.82;7.47;;;;;;;;;;4955309;28;20262;-66
2023/03/29 13:32:17;;;;;;;10.50;6.80;;;;;;;;;;4973404;28;20246;-65
2023/03/29 13:34:45;;;;;;;10.18;7.03;;;;;;;;;;4956883;28;20690;-66
2023/03/29 13:37:17;;;;;;;12.68;7.40;;;;;;;;;;4954364;28;20210;-65
2023/03/29 13:39:49;;;;;;;10.27;7.60;;;;;;;;;;4962275;28;20224;-66
2023/03/29 13:42:18;;;;;;;10.63;7.10;;;;;;;;;;4953803;29;20226;-66
2023/03/29 13:44:46;;;;;;;10.02;7.15;;;;;;;;;;4954150;29;20298;-66
2023/03/29 13:47:15;;;;;;;12.18;6.75;;;;;;;;;;4954523;28;20210;-65
2023/03/29 13:49:41;;;;;;;11.25;7.68;;;;;;;;;;4954431;29;20800;-65
2023/03/29 13:52:14;;;;;;;10.98;7.32;;;;;;;;;;4945635;28;20213;-65
2023/03/29 13:54:43;;;;;;;11.98;7.28;;;;;;;;;;4973475;28;20236;-66
2023/03/29 13:57:16;;;;;;;12.45;7.43;;;;;;;;;;4952080;28;20214;-65
2023/03/29 13:59:45;;;;;;;10.80;7.80;;;;;;;;;;4925293;28;20614;-66
2023/03/29 14:02:13;;;;;;;11.98;7.50;;;;;;;;;;4946796;28;20230;-65
2023/03/29 14:04:42;;;;;;;13.65;7.22;;;;;;;;;;4943743;28;20698;-66
2023/03/29 14:07:09;;;;;;;12.82;7.72;;;;;;;;;;4960978;28;20194;-65
2023/03/29 14:09:35;;;;;;;13.80;7.50;;;;;;;;;;4948569;28;20372;-65
2023/03/29 14:12:00;;;;;;;10.35;6.95;;;;;;;;;;4930317;28;20308;-65
2023/03/29 14:14:26;;;;;;;8.75;6.70;;;;;;;;;;4932161;28;20301;-65
2023/03/29 14:16:53;;;;;;;11.40;6.95;;;;;;;;;;4966821;28;20217;-66
2023/03/29 14:19:33;;;;;;;12.02;7.53;;;;;;;;;;4947268;28;20716;-65
2023/03/29 14:22:00;;;;;;;8.93;6.35;;;;;;;;;;4940606;28;20218;-66
2023/03/29 14:24:26;;;;;;;12.18;7.60;;;;;;;;;;4940749;28;20214;-66
2023/03/29 14:26:52;;;;;;;12.02;7.45;;;;;;;;;;4924747;28;20219;-66
2023/03/29 14:29:17;;;;;;;10.73;7.13;;;;;;;;;;4947016;28;20245;-66
2023/03/29 14:31:42;;;;;;;9.32;6.57;;;;;;;;;;4951946;28;20234;-66
2023/03/29 14:34:13;;;;;;;10.32;6.75;;;;;;;;;;4947049;28;20214;-65
2023/03/29 14:36:38;;;;;;;10.00;6.63;;;;;;;;;;4947793;28;20600;-65
2023/03/29 14:39:11;;;;;;;11.45;6.72;;;;;;;;;;4948016;28;20207;-65